sensor_id;sensor_type;location;lat;lon;timestamp;pressure;altitude;pressure_sealevel;temperature;humidity
59435;BME280;45241;49.768;8.636;2023-03-26T00:00:41;99627.16;;;11.88;77.08
59435;BME280;45241;49.768;8.636;2023-03-26T00:03:11;99636.03;;;11.95;76.64
59435;BME280;45241;49.768;8.636;2023-03-26T00:05:37;99632.50;;;11.94;76.57
59435;BME280;45241;49.768;8.636;2023-03-26T00:08:03;99628.41;;;11.85;76.67
59435;BME280;45241;49.768;8.636;2023-03-26T00:10:29;99630.28;;;11.85;76.69
59435;BME280;45241;49.768;8.636;2023-03-26T00:12:54;99622.44;;;11.77;76.90
59435;BME280;45241;49.768;8.636;2023-03-26T00:15:19;99625.03;;;11.58;77.62
59435;BME280;45241;49.768;8.636;2023-03-26T00:17:45;99622.28;;;11.71;77.19
59435;BME280;45241;49.768;8.636;2023-03-26T00:20:11;99622.56;;;11.57;77.51
59435;BME280;45241;49.768;8.636;2023-03-26T00:22:38;99621.47;;;11.64;77.39
59435;BME280;45241;49.768;8.636;2023-03-26T00:25:05;99627.47;;;11.66;77.77
59435;BME280;45241;49.768;8.636;2023-03-26T00:27:32;99624.03;;;11.46;77.99
59435;BME280;45241;49.768;8.636;2023-03-26T00:29:58;99615.56;;;11.49;78.02
59435;BME280;45241;49.768;8.636;2023-03-26T00:32:26;99612.47;;;11.46;78.23
59435;BME280;45241;49.768;8.636;2023-03-26T00:34:53;99615.34;;;11.51;77.95
59435;BME280;45241;49.768;8.636;2023-03-26T00:37:20;99621.78;;;11.43;78.91
59435;BME280;45241;49.768;8.636;2023-03-26T00:39:51;99616.19;;;11.38;79.11
59435;BME280;45241;49.768;8.636;2023-03-26T00:42:17;99618.69;;;11.39;79.06
59435;BME280;45241;49.768;8.636;2023-03-26T00:44:42;99611.66;;;11.45;78.78
59435;BME280;45241;49.768;8.636;2023-03-26T00:47:07;99615.59;;;11.36;79.55
59435;BME280;45241;49.768;8.636;2023-03-26T00:49:33;99607.75;;;11.34;79.62
59435;BME280;45241;49.768;8.636;2023-03-26T00:51:58;99613.28;;;11.46;78.91
59435;BME280;45241;49.768;8.636;2023-03-26T00:54:23;99615.19;;;11.39;79.41
59435;BME280;45241;49.768;8.636;2023-03-26T00:56:49;99608.75;;;11.53;78.49
59435;BME280;45241;49.768;8.636;2023-03-26T00:59:14;99611.44;;;11.53;78.78
59435;BME280;45241;49.768;8.636;2023-03-26T01:01:41;99607.88;;;11.59;79.05
59435;BME280;45241;49.768;8.636;2023-03-26T01:04:24;99608.31;;;11.56;78.74
59435;BME280;45241;49.768;8.636;2023-03-26T01:07:05;99604.22;;;11.47;78.42
59435;BME280;45241;49.768;8.636;2023-03-26T01:09:36;99597.81;;;11.48;78.55
59435;BME280;45241;49.768;8.636;2023-03-26T01:12:09;99597.63;;;11.36;78.62
59435;BME280;45241;49.768;8.636;2023-03-26T01:14:36;99590.41;;;11.43;78.52
59435;BME280;45241;49.768;8.636;2023-03-26T01:17:04;99577.81;;;11.44;78.40
59435;BME280;45241;49.768;8.636;2023-03-26T01:22:39;99574.72;;;11.40;77.99
59435;BME280;45241;49.768;8.636;2023-03-26T01:25:06;99570.13;;;11.48;77.80
59435;BME280;45241;49.768;8.636;2023-03-26T01:27:43;99569.31;;;11.47;77.96
59435;BME280;45241;49.768;8.636;2023-03-26T01:30:26;99552.38;;;11.53;77.43
59435;BME280;45241;49.768;8.636;2023-03-26T01:33:17;99553.22;;;11.47;77.68
59435;BME280;45241;49.768;8.636;2023-03-26T01:41:09;99552.00;;;11.43;78.55
59435;BME280;45241;49.768;8.636;2023-03-26T01:43:47;99539.19;;;11.45;81.49
59435;BME280;45241;49.768;8.636;2023-03-26T01:46:16;99539.84;;;11.40;82.45
59435;BME280;45241;49.768;8.636;2023-03-26T01:48:44;99526.00;;;11.37;84.17
59435;BME280;45241;49.768;8.636;2023-03-26T01:51:11;99521.47;;;11.31;83.85
59435;BME280;45241;49.768;8.636;2023-03-26T01:53:43;99533.47;;;11.28;83.82
59435;BME280;45241;49.768;8.636;2023-03-26T01:56:30;99528.69;;;11.30;82.78
59435;BME280;45241;49.768;8.636;2023-03-26T02:01:46;99509.31;;;11.22;83.10
59435;BME280;45241;49.768;8.636;2023-03-26T02:04:23;99499.00;;;11.32;81.93
59435;BME280;45241;49.768;8.636;2023-03-26T02:06:56;99501.44;;;11.40;81.50
59435;BME280;45241;49.768;8.636;2023-03-26T02:09:28;99503.69;;;11.43;80.80
59435;BME280;45241;49.768;8.636;2023-03-26T02:11:55;99498.56;;;11.35;81.79
59435;BME280;45241;49.768;8.636;2023-03-26T02:14:21;99494.00;;;11.42;81.60
59435;BME280;45241;49.768;8.636;2023-03-26T02:16:46;99490.66;;;11.47;80.00
59435;BME280;45241;49.768;8.636;2023-03-26T02:19:12;99483.25;;;11.42;80.43
59435;BME280;45241;49.768;8.636;2023-03-26T02:21:45;99491.34;;;11.35;80.44
59435;BME280;45241;49.768;8.636;2023-03-26T02:24:13;99480.38;;;11.43;79.94
59435;BME280;45241;49.768;8.636;2023-03-26T02:26:38;99478.03;;;11.54;79.76
59435;BME280;45241;49.768;8.636;2023-03-26T02:29:04;99470.44;;;11.44;79.82
59435;BME280;45241;49.768;8.636;2023-03-26T02:31:29;99480.50;;;11.55;79.80
59435;BME280;45241;49.768;8.636;2023-03-26T02:33:55;99480.81;;;11.34;80.36
59435;BME280;45241;49.768;8.636;2023-03-26T02:36:21;99465.25;;;11.49;79.45
59435;BME280;45241;49.768;8.636;2023-03-26T02:38:51;99466.88;;;11.50;79.53
59435;BME280;45241;49.768;8.636;2023-03-26T02:41:17;99462.00;;;11.40;80.11
59435;BME280;45241;49.768;8.636;2023-03-26T02:43:42;99469.66;;;11.37;80.11
59435;BME280;45241;49.768;8.636;2023-03-26T02:46:07;99458.31;;;11.35;80.67
59435;BME280;45241;49.768;8.636;2023-03-26T02:48:33;99463.66;;;11.41;80.74
59435;BME280;45241;49.768;8.636;2023-03-26T02:51:02;99459.94;;;11.42;79.91
59435;BME280;45241;49.768;8.636;2023-03-26T02:53:28;99451.06;;;11.42;79.27
59435;BME280;45241;49.768;8.636;2023-03-26T02:55:56;99441.09;;;11.49;79.45
59435;BME280;45241;49.768;8.636;2023-03-26T02:58:22;99438.59;;;11.54;78.77
59435;BME280;45241;49.768;8.636;2023-03-26T03:00:50;99434.50;;;11.52;78.90
59435;BME280;45241;49.768;8.636;2023-03-26T03:03:19;99428.69;;;11.55;78.23
59435;BME280;45241;49.768;8.636;2023-03-26T03:05:49;99427.19;;;11.59;78.05
59435;BME280;45241;49.768;8.636;2023-03-26T03:08:16;99420.19;;;11.58;78.50
59435;BME280;45241;49.768;8.636;2023-03-26T03:10:42;99404.47;;;11.61;77.70
59435;BME280;45241;49.768;8.636;2023-03-26T03:13:07;99406.88;;;11.44;77.67
59435;BME280;45241;49.768;8.636;2023-03-26T03:15:33;99409.47;;;11.51;77.22
59435;BME280;45241;49.768;8.636;2023-03-26T03:17:59;99398.47;;;11.66;77.00
59435;BME280;45241;49.768;8.636;2023-03-26T03:20:24;99396.63;;;11.60;76.96
59435;BME280;45241;49.768;8.636;2023-03-26T03:22:49;99390.19;;;11.67;77.41
59435;BME280;45241;49.768;8.636;2023-03-26T03:25:15;99388.19;;;11.56;76.64
59435;BME280;45241;49.768;8.636;2023-03-26T03:27:42;99383.31;;;11.71;76.89
59435;BME280;45241;49.768;8.636;2023-03-26T03:30:10;99386.00;;;11.71;76.19
59435;BME280;45241;49.768;8.636;2023-03-26T03:32:37;99379.00;;;11.70;76.23
59435;BME280;45241;49.768;8.636;2023-03-26T03:35:03;99379.75;;;11.78;76.09
59435;BME280;45241;49.768;8.636;2023-03-26T03:37:29;99376.19;;;11.59;76.75
59435;BME280;45241;49.768;8.636;2023-03-26T03:39:54;99367.28;;;11.65;76.49
59435;BME280;45241;49.768;8.636;2023-03-26T03:42:20;99369.56;;;11.61;76.50
59435;BME280;45241;49.768;8.636;2023-03-26T03:44:45;99365.72;;;11.76;75.88
59435;BME280;45241;49.768;8.636;2023-03-26T03:47:10;99359.13;;;11.78;75.56
59435;BME280;45241;49.768;8.636;2023-03-26T03:49:38;99363.34;;;11.67;76.59
59435;BME280;45241;49.768;8.636;2023-03-26T03:52:03;99356.69;;;11.70;76.31
59435;BME280;45241;49.768;8.636;2023-03-26T03:54:29;99362.75;;;11.65;76.72
59435;BME280;45241;49.768;8.636;2023-03-26T03:56:54;99354.38;;;11.73;76.93
59435;BME280;45241;49.768;8.636;2023-03-26T03:59:19;99363.88;;;11.76;76.35
59435;BME280;45241;49.768;8.636;2023-03-26T04:01:45;99360.94;;;11.78;76.12
59435;BME280;45241;49.768;8.636;2023-03-26T04:04:15;99347.13;;;11.81;76.59
59435;BME280;45241;49.768;8.636;2023-03-26T04:06:40;99344.78;;;11.84;77.31
59435;BME280;45241;49.768;8.636;2023-03-26T04:09:06;99332.56;;;11.88;77.55
59435;BME280;45241;49.768;8.636;2023-03-26T04:11:31;99335.84;;;11.90;77.25
59435;BME280;45241;49.768;8.636;2023-03-26T04:13:56;99328.00;;;11.89;77.97
59435;BME280;45241;49.768;8.636;2023-03-26T04:16:22;99329.50;;;11.85;78.63
59435;BME280;45241;49.768;8.636;2023-03-26T04:18:47;99322.59;;;11.95;78.11
59435;BME280;45241;49.768;8.636;2023-03-26T04:21:12;99318.50;;;11.93;79.06
59435;BME280;45241;49.768;8.636;2023-03-26T04:23:40;99307.34;;;11.89;78.76
59435;BME280;45241;49.768;8.636;2023-03-26T04:26:07;99309.34;;;11.76;81.18
59435;BME280;45241;49.768;8.636;2023-03-26T04:28:46;99293.41;;;11.81;81.97
59435;BME280;45241;49.768;8.636;2023-03-26T04:31:16;99289.81;;;11.87;82.07
59435;BME280;45241;49.768;8.636;2023-03-26T04:33:46;99277.59;;;11.91;83.22
59435;BME280;45241;49.768;8.636;2023-03-26T04:36:13;99272.25;;;11.91;82.99
59435;BME280;45241;49.768;8.636;2023-03-26T04:38:41;99278.63;;;11.90;83.31
59435;BME280;45241;49.768;8.636;2023-03-26T04:41:10;99271.97;;;11.74;84.52
59435;BME280;45241;49.768;8.636;2023-03-26T04:43:35;99262.22;;;11.80;85.39
59435;BME280;45241;49.768;8.636;2023-03-26T04:46:06;99261.00;;;11.76;86.19
59435;BME280;45241;49.768;8.636;2023-03-26T04:48:32;99250.03;;;11.77;85.70
59435;BME280;45241;49.768;8.636;2023-03-26T04:50:57;99244.91;;;11.76;85.52
59435;BME280;45241;49.768;8.636;2023-03-26T04:53:23;99243.84;;;11.77;84.43
59435;BME280;45241;49.768;8.636;2023-03-26T04:56:00;99232.53;;;11.74;82.44
59435;BME280;45241;49.768;8.636;2023-03-26T04:58:29;99226.06;;;11.82;82.62
59435;BME280;45241;49.768;8.636;2023-03-26T05:01:00;99218.34;;;11.86;82.39
59435;BME280;45241;49.768;8.636;2023-03-26T05:03:28;99220.59;;;11.89;82.22
59435;BME280;45241;49.768;8.636;2023-03-26T05:05:59;99207.78;;;11.91;80.67
59435;BME280;45241;49.768;8.636;2023-03-26T05:08:25;99211.47;;;11.90;82.48
59435;BME280;45241;49.768;8.636;2023-03-26T05:10:55;99215.69;;;11.86;81.98
59435;BME280;45241;49.768;8.636;2023-03-26T05:13:22;99216.13;;;11.83;83.46
59435;BME280;45241;49.768;8.636;2023-03-26T05:15:47;99205.84;;;11.80;82.75
59435;BME280;45241;49.768;8.636;2023-03-26T05:18:13;99213.91;;;11.80;84.03
59435;BME280;45241;49.768;8.636;2023-03-26T05:20:38;99215.09;;;11.65;84.35
59435;BME280;45241;49.768;8.636;2023-03-26T05:23:03;99209.84;;;11.70;82.77
59435;BME280;45241;49.768;8.636;2023-03-26T05:25:29;99193.75;;;11.70;83.71
59435;BME280;45241;49.768;8.636;2023-03-26T05:27:55;99188.84;;;11.67;81.96
59435;BME280;45241;49.768;8.636;2023-03-26T05:30:21;99181.16;;;11.71;83.18
59435;BME280;45241;49.768;8.636;2023-03-26T05:32:47;99180.56;;;11.69;84.39
59435;BME280;45241;49.768;8.636;2023-03-26T05:35:14;99177.13;;;11.80;83.32
59435;BME280;45241;49.768;8.636;2023-03-26T05:37:42;99180.63;;;11.81;83.48
59435;BME280;45241;49.768;8.636;2023-03-26T05:40:08;99168.84;;;11.82;84.00
59435;BME280;45241;49.768;8.636;2023-03-26T05:42:35;99168.97;;;11.87;84.36
59435;BME280;45241;49.768;8.636;2023-03-26T05:45:01;99165.63;;;11.91;85.29
59435;BME280;45241;49.768;8.636;2023-03-26T05:47:26;99155.72;;;11.92;84.55
59435;BME280;45241;49.768;8.636;2023-03-26T05:49:51;99153.84;;;11.92;84.18
59435;BME280;45241;49.768;8.636;2023-03-26T05:52:17;99147.84;;;11.90;83.44
59435;BME280;45241;49.768;8.636;2023-03-26T05:54:43;99148.00;;;11.95;84.39
59435;BME280;45241;49.768;8.636;2023-03-26T05:57:08;99143.75;;;11.88;84.52
59435;BME280;45241;49.768;8.636;2023-03-26T05:59:34;99140.41;;;11.92;84.87
59435;BME280;45241;49.768;8.636;2023-03-26T06:01:59;99136.28;;;11.90;83.49
59435;BME280;45241;49.768;8.636;2023-03-26T06:04:24;99128.63;;;11.93;81.17
59435;BME280;45241;49.768;8.636;2023-03-26T06:06:50;99124.66;;;11.96;82.45
59435;BME280;45241;49.768;8.636;2023-03-26T06:09:17;99120.19;;;11.90;82.66
59435;BME280;45241;49.768;8.636;2023-03-26T06:11:42;99119.47;;;11.83;82.88
59435;BME280;45241;49.768;8.636;2023-03-26T06:14:08;99120.50;;;11.82;82.70
59435;BME280;45241;49.768;8.636;2023-03-26T06:16:33;99116.91;;;11.88;83.14
59435;BME280;45241;49.768;8.636;2023-03-26T06:18:59;99109.38;;;11.96;83.19
59435;BME280;45241;49.768;8.636;2023-03-26T06:21:25;99111.75;;;11.86;84.47
59435;BME280;45241;49.768;8.636;2023-03-26T06:24:02;99107.09;;;11.82;84.14
59435;BME280;45241;49.768;8.636;2023-03-26T06:26:28;99112.53;;;11.75;86.87
59435;BME280;45241;49.768;8.636;2023-03-26T06:28:53;99110.59;;;11.64;89.95
59435;BME280;45241;49.768;8.636;2023-03-26T06:31:18;99107.03;;;11.70;91.28
59435;BME280;45241;49.768;8.636;2023-03-26T06:33:43;99098.16;;;11.69;92.55
59435;BME280;45241;49.768;8.636;2023-03-26T06:36:10;99100.25;;;11.67;92.01
59435;BME280;45241;49.768;8.636;2023-03-26T06:38:35;99088.16;;;11.58;93.74
59435;BME280;45241;49.768;8.636;2023-03-26T06:41:02;99086.81;;;11.49;92.21
59435;BME280;45241;49.768;8.636;2023-03-26T06:43:27;99078.25;;;11.59;93.62
59435;BME280;45241;49.768;8.636;2023-03-26T06:45:52;99079.59;;;11.50;94.56
59435;BME280;45241;49.768;8.636;2023-03-26T06:48:18;99076.50;;;11.64;96.14
59435;BME280;45241;49.768;8.636;2023-03-26T06:50:43;99071.31;;;11.69;95.62
59435;BME280;45241;49.768;8.636;2023-03-26T06:53:09;99070.13;;;11.65;95.84
59435;BME280;45241;49.768;8.636;2023-03-26T06:55:35;99068.03;;;11.67;94.91
59435;BME280;45241;49.768;8.636;2023-03-26T06:58:00;99068.28;;;11.48;94.28
59435;BME280;45241;49.768;8.636;2023-03-26T07:00:26;99064.13;;;11.52;94.37
59435;BME280;45241;49.768;8.636;2023-03-26T07:02:51;99061.09;;;11.60;95.50
59435;BME280;45241;49.768;8.636;2023-03-26T07:05:16;99055.38;;;11.56;95.64
59435;BME280;45241;49.768;8.636;2023-03-26T07:07:42;99060.75;;;11.56;95.03
59435;BME280;45241;49.768;8.636;2023-03-26T07:10:07;99059.00;;;11.62;95.69
59435;BME280;45241;49.768;8.636;2023-03-26T07:12:33;99054.03;;;11.65;96.81
59435;BME280;45241;49.768;8.636;2023-03-26T07:15:00;99046.69;;;11.72;96.94
59435;BME280;45241;49.768;8.636;2023-03-26T07:17:26;99051.00;;;11.73;96.25
59435;BME280;45241;49.768;8.636;2023-03-26T07:19:51;99043.06;;;11.67;96.83
59435;BME280;45241;49.768;8.636;2023-03-26T07:22:23;99042.59;;;11.70;96.88
59435;BME280;45241;49.768;8.636;2023-03-26T07:24:49;99035.47;;;11.76;96.39
59435;BME280;45241;49.768;8.636;2023-03-26T07:32:49;99008.63;;;11.76;97.34
59435;BME280;45241;49.768;8.636;2023-03-26T07:35:40;99002.22;;;11.77;97.24
59435;BME280;45241;49.768;8.636;2023-03-26T07:41:52;98985.88;;;11.66;97.06
59435;BME280;45241;49.768;8.636;2023-03-26T07:44:03;98986.56;;;11.73;97.03
59435;BME280;45241;49.768;8.636;2023-03-26T07:46:35;98984.66;;;11.62;98.39
59435;BME280;45241;49.768;8.636;2023-03-26T07:49:02;98968.09;;;11.54;98.07
59435;BME280;45241;49.768;8.636;2023-03-26T07:51:29;98972.44;;;11.66;99.37
59435;BME280;45241;49.768;8.636;2023-03-26T07:53:55;98972.47;;;11.48;100.00
59435;BME280;45241;49.768;8.636;2023-03-26T07:56:37;98969.59;;;11.61;99.48
59435;BME280;45241;49.768;8.636;2023-03-26T08:02:21;98961.81;;;11.71;98.10
59435;BME280;45241;49.768;8.636;2023-03-26T08:07:37;98951.41;;;11.63;100.00
59435;BME280;45241;49.768;8.636;2023-03-26T08:15:36;98966.94;;;11.61;98.32
59435;BME280;45241;49.768;8.636;2023-03-26T08:18:33;98952.22;;;11.64;96.11
59435;BME280;45241;49.768;8.636;2023-03-26T08:21:09;98967.44;;;11.70;98.08
59435;BME280;45241;49.768;8.636;2023-03-26T08:23:57;98965.56;;;11.70;97.52
59435;BME280;45241;49.768;8.636;2023-03-26T08:29:12;98970.81;;;11.65;96.77
59435;BME280;45241;49.768;8.636;2023-03-26T08:31:41;98983.88;;;11.73;97.00
59435;BME280;45241;49.768;8.636;2023-03-26T08:34:10;98984.44;;;11.64;96.17
59435;BME280;45241;49.768;8.636;2023-03-26T08:36:36;98981.09;;;11.68;96.60
59435;BME280;45241;49.768;8.636;2023-03-26T08:39:02;98983.25;;;11.60;97.80
59435;BME280;45241;49.768;8.636;2023-03-26T08:44:33;98987.72;;;11.18;98.56
59435;BME280;45241;49.768;8.636;2023-03-26T08:59:00;98934.72;;;11.01;94.59
59435;BME280;45241;49.768;8.636;2023-03-26T09:02:05;98927.41;;;10.90;95.28
59435;BME280;45241;49.768;8.636;2023-03-26T09:05:16;98930.28;;;11.07;96.23
59435;BME280;45241;49.768;8.636;2023-03-26T09:35:31;98892.75;;;11.07;92.47
59435;BME280;45241;49.768;8.636;2023-03-26T09:38:10;98883.00;;;10.94;95.63
59435;BME280;45241;49.768;8.636;2023-03-26T09:52:14;98889.72;;;10.85;92.85
59435;BME280;45241;49.768;8.636;2023-03-26T10:00:12;98880.44;;;11.18;96.23
59435;BME280;45241;49.768;8.636;2023-03-26T10:05:22;98886.50;;;11.43;93.96
59435;BME280;45241;49.768;8.636;2023-03-26T10:10:58;98888.75;;;11.28;96.40
59435;BME280;45241;49.768;8.636;2023-03-26T10:16:08;98883.63;;;11.68;96.22
59435;BME280;45241;49.768;8.636;2023-03-26T10:21:33;98867.81;;;11.48;95.98
59435;BME280;45241;49.768;8.636;2023-03-26T10:33:19;98842.66;;;11.96;90.78
59435;BME280;45241;49.768;8.636;2023-03-26T10:36:13;98843.94;;;12.17;92.32
59435;BME280;45241;49.768;8.636;2023-03-26T10:41:20;98847.31;;;12.36;89.66
59435;BME280;45241;49.768;8.636;2023-03-26T10:52:08;98822.25;;;12.87;88.28
59435;BME280;45241;49.768;8.636;2023-03-26T10:59:56;98809.50;;;13.39;85.20
59435;BME280;45241;49.768;8.636;2023-03-26T11:02:28;98807.94;;;13.77;84.86
59435;BME280;45241;49.768;8.636;2023-03-26T11:07:44;98809.09;;;13.64;83.07
59435;BME280;45241;49.768;8.636;2023-03-26T11:18:22;98812.41;;;13.21;81.57
59435;BME280;45241;49.768;8.636;2023-03-26T11:20:57;98809.19;;;13.07;82.42
59435;BME280;45241;49.768;8.636;2023-03-26T11:23:33;98810.97;;;12.73;85.25
59435;BME280;45241;49.768;8.636;2023-03-26T11:26:07;98803.56;;;12.52;88.94
59435;BME280;45241;49.768;8.636;2023-03-26T11:34:18;98800.66;;;12.82;96.81
59435;BME280;45241;49.768;8.636;2023-03-26T11:36:49;98808.50;;;13.12;92.93
59435;BME280;45241;49.768;8.636;2023-03-26T11:39:48;98790.16;;;13.26;91.44
59435;BME280;45241;49.768;8.636;2023-03-26T11:42:15;98796.34;;;13.43;91.78
59435;BME280;45241;49.768;8.636;2023-03-26T11:44:47;98790.66;;;13.39;92.07
59435;BME280;45241;49.768;8.636;2023-03-26T11:47:20;98790.91;;;13.21;90.18
59435;BME280;45241;49.768;8.636;2023-03-26T11:49:48;98782.16;;;13.14;90.04
59435;BME280;45241;49.768;8.636;2023-03-26T11:52:15;98783.47;;;13.28;90.53
59435;BME280;45241;49.768;8.636;2023-03-26T11:54:41;98775.88;;;13.25;92.03
59435;BME280;45241;49.768;8.636;2023-03-26T11:57:15;98770.50;;;13.08;92.16
59435;BME280;45241;49.768;8.636;2023-03-26T11:59:46;98766.69;;;13.21;93.81
59435;BME280;45241;49.768;8.636;2023-03-26T12:02:24;98783.22;;;13.13;93.60
59435;BME280;45241;49.768;8.636;2023-03-26T12:07:52;98780.78;;;13.11;90.64
59435;BME280;45241;49.768;8.636;2023-03-26T12:15:46;98785.16;;;13.68;89.63
59435;BME280;45241;49.768;8.636;2023-03-26T12:18:25;98799.16;;;13.48;84.10
59435;BME280;45241;49.768;8.636;2023-03-26T12:21:05;98786.72;;;13.64;81.87
59435;BME280;45241;49.768;8.636;2023-03-26T12:23:59;98785.22;;;13.73;73.23
59435;BME280;45241;49.768;8.636;2023-03-26T12:26:39;98785.81;;;13.75;74.10
59435;BME280;45241;49.768;8.636;2023-03-26T12:29:12;98781.97;;;13.88;73.97
59435;BME280;45241;49.768;8.636;2023-03-26T12:32:02;98775.88;;;13.97;77.14
59435;BME280;45241;49.768;8.636;2023-03-26T12:34:30;98776.13;;;13.74;73.32
59435;BME280;45241;49.768;8.636;2023-03-26T12:36:59;98774.06;;;13.81;73.66
59435;BME280;45241;49.768;8.636;2023-03-26T12:39:47;98771.16;;;14.04;73.85
59435;BME280;45241;49.768;8.636;2023-03-26T12:42:27;98771.91;;;14.38;74.14
59435;BME280;45241;49.768;8.636;2023-03-26T12:44:54;98773.44;;;14.83;73.14
59435;BME280;45241;49.768;8.636;2023-03-26T12:47:24;98781.84;;;14.87;71.09
59435;BME280;45241;49.768;8.636;2023-03-26T12:49:50;98778.16;;;14.44;71.11
59435;BME280;45241;49.768;8.636;2023-03-26T12:55:25;98766.47;;;14.17;72.45
59435;BME280;45241;49.768;8.636;2023-03-26T12:58:06;98767.94;;;14.07;72.45
59435;BME280;45241;49.768;8.636;2023-03-26T13:01:01;98775.53;;;14.10;72.08
59435;BME280;45241;49.768;8.636;2023-03-26T13:15:19;98780.28;;;14.42;70.64
59435;BME280;45241;49.768;8.636;2023-03-26T13:18:12;98787.97;;;14.33;67.89
59435;BME280;45241;49.768;8.636;2023-03-26T13:23:34;98794.09;;;14.73;68.21
59435;BME280;45241;49.768;8.636;2023-03-26T13:26:15;98770.53;;;14.90;66.43
59435;BME280;45241;49.768;8.636;2023-03-26T13:37:52;98759.13;;;14.56;64.79
59435;BME280;45241;49.768;8.636;2023-03-26T13:40:29;98770.53;;;14.63;66.67
59435;BME280;45241;49.768;8.636;2023-03-26T13:48:19;98764.59;;;14.88;65.90
59435;BME280;45241;49.768;8.636;2023-03-26T13:50:59;98761.84;;;14.83;67.46
59435;BME280;45241;49.768;8.636;2023-03-26T13:53:35;98752.72;;;14.89;67.18
59435;BME280;45241;49.768;8.636;2023-03-26T13:56:03;98760.06;;;14.66;65.89
59435;BME280;45241;49.768;8.636;2023-03-26T13:58:37;98758.13;;;14.89;67.30
59435;BME280;45241;49.768;8.636;2023-03-26T14:01:25;98753.19;;;14.81;68.80
59435;BME280;45241;49.768;8.636;2023-03-26T14:09:20;98738.94;;;14.58;60.58
59435;BME280;45241;49.768;8.636;2023-03-26T14:14:40;98728.25;;;14.68;60.28
59435;BME280;45241;49.768;8.636;2023-03-26T14:17:14;98724.91;;;14.56;59.62
59435;BME280;45241;49.768;8.636;2023-03-26T14:28:15;98718.72;;;14.88;58.72
59435;BME280;45241;49.768;8.636;2023-03-26T14:31:10;98714.72;;;14.90;59.93
59435;BME280;45241;49.768;8.636;2023-03-26T14:34:37;98700.97;;;14.92;58.35
59435;BME280;45241;49.768;8.636;2023-03-26T14:36:56;98705.84;;;14.95;58.20
59435;BME280;45241;49.768;8.636;2023-03-26T14:39:44;98701.56;;;14.99;57.72
59435;BME280;45241;49.768;8.636;2023-03-26T14:42:47;98691.59;;;15.37;58.21
59435;BME280;45241;49.768;8.636;2023-03-26T14:48:36;98682.72;;;15.04;56.27
59435;BME280;45241;49.768;8.636;2023-03-26T14:51:19;98680.78;;;15.32;57.11
59435;BME280;45241;49.768;8.636;2023-03-26T14:53:52;98675.81;;;15.18;58.06
59435;BME280;45241;49.768;8.636;2023-03-26T14:59:13;98674.97;;;14.81;55.07
59435;BME280;45241;49.768;8.636;2023-03-26T15:02:24;98669.59;;;14.86;54.18
59435;BME280;45241;49.768;8.636;2023-03-26T15:14:22;98669.59;;;14.86;56.26
59435;BME280;45241;49.768;8.636;2023-03-26T15:37:16;98694.75;;;14.37;58.68
59435;BME280;45241;49.768;8.636;2023-03-26T15:43:01;98702.28;;;14.14;59.32
59435;BME280;45241;49.768;8.636;2023-03-26T15:45:33;98705.41;;;14.05;58.59
59435;BME280;45241;49.768;8.636;2023-03-26T15:48:06;98715.63;;;14.03;58.39
59435;BME280;45241;49.768;8.636;2023-03-26T15:51:03;98716.38;;;13.99;59.07
59435;BME280;45241;49.768;8.636;2023-03-26T15:56:29;98725.47;;;13.54;60.29
59435;BME280;45241;49.768;8.636;2023-03-26T16:02:23;98733.84;;;13.58;61.22
59435;BME280;45241;49.768;8.636;2023-03-26T16:04:53;98740.16;;;13.30;62.18
59435;BME280;45241;49.768;8.636;2023-03-26T16:15:52;98781.03;;;13.27;63.89
59435;BME280;45241;49.768;8.636;2023-03-26T16:31:30;98836.63;;;12.93;66.25
59435;BME280;45241;49.768;8.636;2023-03-26T16:34:17;98844.91;;;12.62;67.57
59435;BME280;45241;49.768;8.636;2023-03-26T16:36:45;98850.78;;;12.48;68.93
59435;BME280;45241;49.768;8.636;2023-03-26T16:39:23;98850.59;;;12.14;71.39
59435;BME280;45241;49.768;8.636;2023-03-26T16:42:03;98846.94;;;12.44;71.54
59435;BME280;45241;49.768;8.636;2023-03-26T16:44:42;98852.31;;;12.44;71.22
59435;BME280;45241;49.768;8.636;2023-03-26T16:47:22;98857.38;;;12.17;72.31
59435;BME280;45241;49.768;8.636;2023-03-26T16:58:14;98830.19;;;12.53;71.75
59435;BME280;45241;49.768;8.636;2023-03-26T17:01:03;98835.13;;;12.45;72.06
59435;BME280;45241;49.768;8.636;2023-03-26T17:03:40;98826.13;;;12.51;72.31
59435;BME280;45241;49.768;8.636;2023-03-26T17:06:22;98820.13;;;12.60;72.84
59435;BME280;45241;49.768;8.636;2023-03-26T17:09:16;98812.97;;;12.66;72.41
59435;BME280;45241;49.768;8.636;2023-03-26T17:15:12;98814.06;;;12.53;72.59
59435;BME280;45241;49.768;8.636;2023-03-26T17:18:02;98817.56;;;12.54;72.98
59435;BME280;45241;49.768;8.636;2023-03-26T17:20:38;98821.94;;;12.43;73.11
59435;BME280;45241;49.768;8.636;2023-03-26T17:23:10;98834.47;;;12.26;74.10
59435;BME280;45241;49.768;8.636;2023-03-26T17:25:44;98832.84;;;12.13;74.67
59435;BME280;45241;49.768;8.636;2023-03-26T17:33:37;98829.25;;;11.96;74.17
59435;BME280;45241;49.768;8.636;2023-03-26T17:41:49;98811.97;;;11.92;75.15
59435;BME280;45241;49.768;8.636;2023-03-26T17:44:39;98810.53;;;12.01;75.03
59435;BME280;45241;49.768;8.636;2023-03-26T17:47:11;98808.09;;;11.88;74.99
59435;BME280;45241;49.768;8.636;2023-03-26T17:49:42;98817.56;;;11.55;75.55
59435;BME280;45241;49.768;8.636;2023-03-26T17:52:21;98812.56;;;11.82;75.28
59435;BME280;45241;49.768;8.636;2023-03-26T17:54:51;98823.75;;;11.67;77.02
59435;BME280;45241;49.768;8.636;2023-03-26T17:57:20;98826.66;;;11.54;77.67
59435;BME280;45241;49.768;8.636;2023-03-26T17:59:48;98824.66;;;11.61;78.03
59435;BME280;45241;49.768;8.636;2023-03-26T18:02:17;98830.53;;;11.70;78.36
59435;BME280;45241;49.768;8.636;2023-03-26T18:04:44;98838.34;;;11.71;77.30
59435;BME280;45241;49.768;8.636;2023-03-26T18:10:28;98836.94;;;11.57;77.41
59435;BME280;45241;49.768;8.636;2023-03-26T18:13:06;98847.31;;;11.54;75.80
59435;BME280;45241;49.768;8.636;2023-03-26T18:18:17;98860.25;;;11.57;74.71
59435;BME280;45241;49.768;8.636;2023-03-26T18:20:45;98856.63;;;11.51;74.13